SVMC/MAR METAR and TAF weather

Enter ICAO airport designator
Station Type Date Time Source
SVMC METAR 2019/08/22 14:00 UTC NOAA

SVMC 221400Z METAR SVVG 221400Z ///// 9999 BKN020 29/24 1014


Station Type Date Time Source
SVMC Decoded METAR 2019/08/22 14:00 UTC NOAA

Station name not available
Aug 22, 2019 - 10:00 AM EDT / 2019.08.22 1400 UTC
Visibility: greater than 7 mile(s):0
Sky conditions: mostly cloudy
Temperature: 84 F (29 C)
Dew Point: 75 F (24 C)
Relative Humidity: 74%
ob: SVMC 221400Z METAR SVVG 221400Z ///// 9999 BKN020 29/24 1014
cycle: 14

Station Type Date Time Source
SVMC TAF 2019/08/24 06:08 UTC NOAA

TAF SVMC 240400Z 2406/2506 36013KT 9999 SCT016 TX35/19Z TN26/08Z
TEMPO 2406/2410 05004KT 9000 -DZ BKN016

Example: see airport list